1917 NOT_NAMED (1917246N16116)


IBTrACS version v04r00. Visit IBTrACS website for data access.
Please direct all questions to the IBTrACS Q and A forum

Storm track - Intensity - Wind Radii - Intensity Data - Source Data - All data

Summary Information

Storm ID 1917246N16116
Start Sep 2 22Z
End Sep 4 22Z
ATCF IDs
Track status Best track data.

Storm track plot

Map of storm track

Intensity plots

No Intensity information for this storm


Radial wind information

No radial wind information for this storm


Position and Intensity Table

BASIN ISO_TIME_________ NATURE LAT LON
degrees north degrees east
WP 1917-09-02 22:00:00 NR 16.40 116.00
WP 1917-09-03 00:00:00 NR 16.32 115.70
WP 03:00:00 NR 16.20 115.25
WP 06:00:00 NR 16.10 114.77
WP 09:00:00 NR 16.02 114.27
WP 10:00:00 NR 16.00 114.10
WP 12:00:00 NR 15.97 113.74
WP 15:00:00 NR 15.96 113.18
WP 18:00:00 NR 15.96 112.64
WP 21:00:00 NR 15.99 112.15
WP 22:00:00 NR 16.00 112.00
WP 1917-09-04 00:00:00 NR 16.01 111.79
WP 03:00:00 NR 16.04 111.53
WP 06:00:00 NR 16.09 111.28
WP 09:00:00 NR 16.17 110.94
WP 10:00:00 NR 16.20 110.80
WP 12:00:00 NR 16.28 110.46
WP 15:00:00 NR 16.42 109.82
WP 18:00:00 NR 16.58 109.08
WP 21:00:00 NR 16.74 108.27
WP 22:00:00 NR 16.80 108.00

Source Information

Agency Information
USA
TOKYO
CMA
HKO
NEWDELHI
REUNION
BOM
NADI
WELLINGTON
DS824
TD9636 cons_worldwide_trop_cyclone_18710101-19891231-003:Line=5540
TD9635
NEUMANN
MLC

All available IBTrACS Data

SEASON BASIN SUBBASIN ISO_TIME_________ NATURE LAT LON DIST2LAND LANDFALL IFLAG USA SSHS TD9636 LAT TD9636 LON TD9636 STAGE STORM SPEED STORM DIR
Year degrees north degrees east km km 1 degrees north degrees east kts degrees
1917 WP MM 1917-09-02 22:00:00 NR 16.40 116.00 397 397 __________O___ -1 16.40 116.00 7 9 254
1917 WP MM 1917-09-03 00:00:00 NR 16.32 115.70 428 428 __________P___ -1 16.32 115.70 7 9 255
1917 WP MM 03:00:00 NR 16.20 115.25 481 481 __________P___ -1 16.20 115.25 7 9 256
1917 WP MM 06:00:00 NR 16.10 114.77 523 510 __________P___ -1 16.10 114.77 7 10 259
1917 WP MM 09:00:00 NR 16.02 114.27 510 494 __________P___ -1 16.02 114.27 7 10 261
1917 WP MM 10:00:00 NR 16.00 114.10 494 462 __________O___ -1 16.00 114.10 7 10 265
1917 WP MM 12:00:00 NR 15.97 113.74 462 423 __________P___ -1 15.97 113.74 7 11 267
1917 WP MM 15:00:00 NR 15.96 113.18 423 381 __________P___ -1 15.96 113.18 7 11 270
1917 WP MM 18:00:00 NR 15.96 112.64 381 349 __________P___ -1 15.96 112.64 7 10 272
1917 WP MM 21:00:00 NR 15.99 112.15 349 342 __________P___ -1 15.99 112.15 7 9 273
1917 WP MM 22:00:00 NR 16.00 112.00 342 323 __________O___ -1 16.00 112.00 7 7 274
1917 WP MM 1917-09-04 00:00:00 NR 16.01 111.79 323 292 __________P___ -1 16.01 111.79 7 5 275
1917 WP MM 03:00:00 NR 16.04 111.53 292 276 __________P___ -1 16.04 111.53 7 5 279
1917 WP MM 06:00:00 NR 16.09 111.28 276 241 __________P___ -1 16.09 111.28 7 6 283
1917 WP MM 09:00:00 NR 16.17 110.94 241 232 __________P___ -1 16.17 110.94 7 7 284
1917 WP MM 10:00:00 NR 16.20 110.80 232 210 __________O___ -1 16.20 110.80 3 10 283
1917 WP MM 12:00:00 NR 16.28 110.46 210 162 __________P___ -1 16.28 110.46 3 12 283
1917 WP MM 15:00:00 NR 16.42 109.82 162 108 __________P___ -1 16.42 109.82 3 14 283
1917 WP MM 18:00:00 NR 16.58 109.08 108 59 __________P___ -1 16.58 109.08 3 15 282
1917 WP MM 21:00:00 NR 16.74 108.27 59 48 __________P___ -1 16.74 108.27 3 16 282
1917 WP MM 22:00:00 NR 16.80 108.00 48 __________O___ -1 16.80 108.00 4 16 282